sensor_id;sensor_type;location;lat;lon;timestamp;temperature;humidity
4647;DHT22;2336;47.822;7.564;2023-05-23T00:00:41;16.40;99.90
4647;DHT22;2336;47.822;7.564;2023-05-23T00:03:08;16.50;99.90
4647;DHT22;2336;47.822;7.564;2023-05-23T00:05:35;16.50;99.90
4647;DHT22;2336;47.822;7.564;2023-05-23T00:08:02;16.50;99.90
4647;DHT22;2336;47.822;7.564;2023-05-23T00:10:28;16.40;99.90
4647;DHT22;2336;47.822;7.564;2023-05-23T00:12:55;16.40;99.90
4647;DHT22;2336;47.822;7.564;2023-05-23T00:15:22;16.30;99.90
4647;DHT22;2336;47.822;7.564;2023-05-23T00:17:51;16.30;99.90
4647;DHT22;2336;47.822;7.564;2023-05-23T00:20:18;16.20;99.90
4647;DHT22;2336;47.822;7.564;2023-05-23T00:22:45;16.20;99.90
4647;DHT22;2336;47.822;7.564;2023-05-23T00:25:12;16.20;99.90
4647;DHT22;2336;47.822;7.564;2023-05-23T00:27:39;16.10;99.90
4647;DHT22;2336;47.822;7.564;2023-05-23T00:30:07;16.10;99.90
4647;DHT22;2336;47.822;7.564;2023-05-23T00:32:34;16.10;99.90
4647;DHT22;2336;47.822;7.564;2023-05-23T00:35:02;16.10;99.90
4647;DHT22;2336;47.822;7.564;2023-05-23T00:37:29;16.00;99.90
4647;DHT22;2336;47.822;7.564;2023-05-23T00:39:56;15.90;99.90
4647;DHT22;2336;47.822;7.564;2023-05-23T00:42:23;15.90;99.90
4647;DHT22;2336;47.822;7.564;2023-05-23T00:44:50;15.80;99.90
4647;DHT22;2336;47.822;7.564;2023-05-23T00:47:16;15.80;99.90
4647;DHT22;2336;47.822;7.564;2023-05-23T00:49:44;15.80;99.90
4647;DHT22;2336;47.822;7.564;2023-05-23T00:52:14;15.80;99.90
4647;DHT22;2336;47.822;7.564;2023-05-23T00:54:41;15.80;99.90
4647;DHT22;2336;47.822;7.564;2023-05-23T00:57:08;15.70;99.90
4647;DHT22;2336;47.822;7.564;2023-05-23T00:59:37;15.70;99.90
4647;DHT22;2336;47.822;7.564;2023-05-23T01:02:04;15.50;99.90
4647;DHT22;2336;47.822;7.564;2023-05-23T01:04:31;15.40;99.90
4647;DHT22;2336;47.822;7.564;2023-05-23T01:06:58;15.40;99.90
4647;DHT22;2336;47.822;7.564;2023-05-23T01:09:28;15.40;99.90
4647;DHT22;2336;47.822;7.564;2023-05-23T01:12:07;15.40;99.90
4647;DHT22;2336;47.822;7.564;2023-05-23T01:14:41;15.40;99.90
4647;DHT22;2336;47.822;7.564;2023-05-23T01:17:12;15.40;99.90
4647;DHT22;2336;47.822;7.564;2023-05-23T01:19:56;15.40;99.90
4647;DHT22;2336;47.822;7.564;2023-05-23T01:22:40;15.40;99.90
4647;DHT22;2336;47.822;7.564;2023-05-23T01:25:27;15.40;99.90
4647;DHT22;2336;47.822;7.564;2023-05-23T01:28:00;15.40;99.90
4647;DHT22;2336;47.822;7.564;2023-05-23T01:30:29;15.40;99.90
4647;DHT22;2336;47.822;7.564;2023-05-23T01:32:57;15.40;99.90
4647;DHT22;2336;47.822;7.564;2023-05-23T01:35:25;15.40;99.90
4647;DHT22;2336;47.822;7.564;2023-05-23T01:37:52;15.40;99.90
4647;DHT22;2336;47.822;7.564;2023-05-23T01:40:20;15.40;99.90
4647;DHT22;2336;47.822;7.564;2023-05-23T01:42:47;15.40;99.90
4647;DHT22;2336;47.822;7.564;2023-05-23T01:45:16;15.40;99.90
4647;DHT22;2336;47.822;7.564;2023-05-23T01:47:44;15.40;99.90
4647;DHT22;2336;47.822;7.564;2023-05-23T01:50:12;15.40;99.90
4647;DHT22;2336;47.822;7.564;2023-05-23T01:52:39;15.40;99.90
4647;DHT22;2336;47.822;7.564;2023-05-23T01:55:07;15.40;99.90
4647;DHT22;2336;47.822;7.564;2023-05-23T01:57:37;15.50;99.90
4647;DHT22;2336;47.822;7.564;2023-05-23T02:00:05;15.50;99.90
4647;DHT22;2336;47.822;7.564;2023-05-23T02:02:34;15.60;99.90
4647;DHT22;2336;47.822;7.564;2023-05-23T02:05:00;15.60;99.90
4647;DHT22;2336;47.822;7.564;2023-05-23T02:07:27;15.60;99.90
4647;DHT22;2336;47.822;7.564;2023-05-23T02:09:54;15.70;99.90
4647;DHT22;2336;47.822;7.564;2023-05-23T02:12:20;15.70;99.90
4647;DHT22;2336;47.822;7.564;2023-05-23T02:14:48;15.80;99.90
4647;DHT22;2336;47.822;7.564;2023-05-23T02:17:16;15.80;99.90
4647;DHT22;2336;47.822;7.564;2023-05-23T02:19:44;15.90;99.90
4647;DHT22;2336;47.822;7.564;2023-05-23T02:22:11;15.90;99.90
4647;DHT22;2336;47.822;7.564;2023-05-23T02:24:38;16.00;99.90
4647;DHT22;2336;47.822;7.564;2023-05-23T02:27:04;16.00;99.90
4647;DHT22;2336;47.822;7.564;2023-05-23T02:29:31;16.10;99.90
4647;DHT22;2336;47.822;7.564;2023-05-23T02:31:58;16.10;99.90
4647;DHT22;2336;47.822;7.564;2023-05-23T02:34:25;16.10;99.90
4647;DHT22;2336;47.822;7.564;2023-05-23T02:36:53;16.10;99.90
4647;DHT22;2336;47.822;7.564;2023-05-23T02:39:20;16.10;99.90
4647;DHT22;2336;47.822;7.564;2023-05-23T02:41:46;16.10;99.90
4647;DHT22;2336;47.822;7.564;2023-05-23T02:44:13;16.20;99.90
4647;DHT22;2336;47.822;7.564;2023-05-23T02:46:40;16.20;99.90
4647;DHT22;2336;47.822;7.564;2023-05-23T02:49:06;16.20;99.90
4647;DHT22;2336;47.822;7.564;2023-05-23T02:51:33;16.20;99.90
4647;DHT22;2336;47.822;7.564;2023-05-23T02:54:01;16.20;99.90
4647;DHT22;2336;47.822;7.564;2023-05-23T02:56:28;16.20;99.90
4647;DHT22;2336;47.822;7.564;2023-05-23T02:58:55;16.20;99.90
4647;DHT22;2336;47.822;7.564;2023-05-23T03:01:21;16.20;99.90
4647;DHT22;2336;47.822;7.564;2023-05-23T03:03:48;16.20;99.90
4647;DHT22;2336;47.822;7.564;2023-05-23T03:06:15;16.20;99.90
4647;DHT22;2336;47.822;7.564;2023-05-23T03:08:42;16.20;99.90
4647;DHT22;2336;47.822;7.564;2023-05-23T03:11:10;16.20;99.90
4647;DHT22;2336;47.822;7.564;2023-05-23T03:13:37;16.10;99.90
4647;DHT22;2336;47.822;7.564;2023-05-23T03:16:04;16.10;99.90
4647;DHT22;2336;47.822;7.564;2023-05-23T03:18:30;16.10;99.90
4647;DHT22;2336;47.822;7.564;2023-05-23T03:20:57;16.10;99.90
4647;DHT22;2336;47.822;7.564;2023-05-23T03:23:24;16.00;99.90
4647;DHT22;2336;47.822;7.564;2023-05-23T03:25:50;15.90;99.90
4647;DHT22;2336;47.822;7.564;2023-05-23T03:28:19;15.90;99.90
4647;DHT22;2336;47.822;7.564;2023-05-23T03:30:45;15.90;99.90
4647;DHT22;2336;47.822;7.564;2023-05-23T03:33:12;15.90;99.90
4647;DHT22;2336;47.822;7.564;2023-05-23T03:35:38;15.90;99.90
4647;DHT22;2336;47.822;7.564;2023-05-23T03:38:06;15.90;99.90
4647;DHT22;2336;47.822;7.564;2023-05-23T03:40:32;15.90;99.90
4647;DHT22;2336;47.822;7.564;2023-05-23T03:43:03;15.90;99.90
4647;DHT22;2336;47.822;7.564;2023-05-23T03:45:32;15.90;99.90
4647;DHT22;2336;47.822;7.564;2023-05-23T03:47:59;15.90;99.90
4647;DHT22;2336;47.822;7.564;2023-05-23T03:50:26;15.90;99.90
4647;DHT22;2336;47.822;7.564;2023-05-23T03:52:53;15.90;99.90
4647;DHT22;2336;47.822;7.564;2023-05-23T03:55:20;16.00;99.90
4647;DHT22;2336;47.822;7.564;2023-05-23T03:57:48;16.00;99.90
4647;DHT22;2336;47.822;7.564;2023-05-23T04:00:15;16.00;99.90
4647;DHT22;2336;47.822;7.564;2023-05-23T04:02:44;16.00;99.90
4647;DHT22;2336;47.822;7.564;2023-05-23T04:05:11;16.10;99.90
4647;DHT22;2336;47.822;7.564;2023-05-23T04:07:38;16.10;99.90
4647;DHT22;2336;47.822;7.564;2023-05-23T04:10:07;16.10;99.90
4647;DHT22;2336;47.822;7.564;2023-05-23T04:12:34;16.10;99.90
4647;DHT22;2336;47.822;7.564;2023-05-23T04:15:00;16.20;99.90
4647;DHT22;2336;47.822;7.564;2023-05-23T04:17:28;16.20;99.90
4647;DHT22;2336;47.822;7.564;2023-05-23T04:19:57;16.30;99.90
4647;DHT22;2336;47.822;7.564;2023-05-23T04:22:23;16.30;99.90
4647;DHT22;2336;47.822;7.564;2023-05-23T04:24:50;16.40;99.90
4647;DHT22;2336;47.822;7.564;2023-05-23T04:27:17;16.40;99.90
4647;DHT22;2336;47.822;7.564;2023-05-23T04:29:44;16.50;99.90
4647;DHT22;2336;47.822;7.564;2023-05-23T04:32:11;16.60;99.90
4647;DHT22;2336;47.822;7.564;2023-05-23T04:34:39;16.60;99.90
4647;DHT22;2336;47.822;7.564;2023-05-23T04:37:08;16.60;99.90
4647;DHT22;2336;47.822;7.564;2023-05-23T04:39:34;16.60;99.90
4647;DHT22;2336;47.822;7.564;2023-05-23T04:42:02;16.70;99.90
4647;DHT22;2336;47.822;7.564;2023-05-23T04:44:31;16.60;99.90
4647;DHT22;2336;47.822;7.564;2023-05-23T04:46:58;16.60;99.90
4647;DHT22;2336;47.822;7.564;2023-05-23T04:49:27;16.60;99.90
4647;DHT22;2336;47.822;7.564;2023-05-23T04:51:54;16.70;99.90
4647;DHT22;2336;47.822;7.564;2023-05-23T04:54:22;16.70;99.90
4647;DHT22;2336;47.822;7.564;2023-05-23T04:56:48;16.70;99.90
4647;DHT22;2336;47.822;7.564;2023-05-23T04:59:15;16.70;99.90
4647;DHT22;2336;47.822;7.564;2023-05-23T05:01:42;16.70;99.90
4647;DHT22;2336;47.822;7.564;2023-05-23T05:04:09;16.70;99.90
4647;DHT22;2336;47.822;7.564;2023-05-23T05:06:36;16.70;99.90
4647;DHT22;2336;47.822;7.564;2023-05-23T05:09:02;16.80;99.90
4647;DHT22;2336;47.822;7.564;2023-05-23T05:11:30;16.80;99.90
4647;DHT22;2336;47.822;7.564;2023-05-23T05:13:57;16.80;99.90
4647;DHT22;2336;47.822;7.564;2023-05-23T05:16:24;16.90;99.90
4647;DHT22;2336;47.822;7.564;2023-05-23T05:18:51;16.90;99.90
4647;DHT22;2336;47.822;7.564;2023-05-23T05:21:18;16.90;99.90
4647;DHT22;2336;47.822;7.564;2023-05-23T05:23:44;16.90;99.90
4647;DHT22;2336;47.822;7.564;2023-05-23T05:26:11;17.00;99.90
4647;DHT22;2336;47.822;7.564;2023-05-23T05:28:39;17.00;99.90
4647;DHT22;2336;47.822;7.564;2023-05-23T05:31:06;17.00;99.90
4647;DHT22;2336;47.822;7.564;2023-05-23T05:33:34;17.10;99.90
4647;DHT22;2336;47.822;7.564;2023-05-23T05:36:02;17.20;99.90
4647;DHT22;2336;47.822;7.564;2023-05-23T05:38:29;17.20;99.90
4647;DHT22;2336;47.822;7.564;2023-05-23T05:40:55;17.30;99.90
4647;DHT22;2336;47.822;7.564;2023-05-23T05:43:22;17.30;99.90
4647;DHT22;2336;47.822;7.564;2023-05-23T05:45:50;17.30;99.90
4647;DHT22;2336;47.822;7.564;2023-05-23T05:48:17;17.40;99.90
4647;DHT22;2336;47.822;7.564;2023-05-23T05:50:43;17.40;99.90
4647;DHT22;2336;47.822;7.564;2023-05-23T05:53:11;17.40;99.90
4647;DHT22;2336;47.822;7.564;2023-05-23T05:55:38;17.50;99.90
4647;DHT22;2336;47.822;7.564;2023-05-23T05:58:05;17.50;99.90
4647;DHT22;2336;47.822;7.564;2023-05-23T06:00:33;17.50;99.90
4647;DHT22;2336;47.822;7.564;2023-05-23T06:03:07;17.60;99.90
4647;DHT22;2336;47.822;7.564;2023-05-23T06:05:34;17.60;99.90
4647;DHT22;2336;47.822;7.564;2023-05-23T06:08:02;17.70;99.90
4647;DHT22;2336;47.822;7.564;2023-05-23T06:10:29;17.70;99.90
4647;DHT22;2336;47.822;7.564;2023-05-23T06:12:57;17.80;99.90
4647;DHT22;2336;47.822;7.564;2023-05-23T06:15:24;17.70;99.90
4647;DHT22;2336;47.822;7.564;2023-05-23T06:17:51;17.70;99.90
4647;DHT22;2336;47.822;7.564;2023-05-23T06:20:19;17.60;99.90
4647;DHT22;2336;47.822;7.564;2023-05-23T06:22:46;17.60;99.90
4647;DHT22;2336;47.822;7.564;2023-05-23T06:25:13;17.60;99.90
4647;DHT22;2336;47.822;7.564;2023-05-23T06:27:39;17.70;99.90
4647;DHT22;2336;47.822;7.564;2023-05-23T06:30:07;17.60;99.90
4647;DHT22;2336;47.822;7.564;2023-05-23T06:32:34;17.70;99.90
4647;DHT22;2336;47.822;7.564;2023-05-23T06:35:01;17.60;99.90
4647;DHT22;2336;47.822;7.564;2023-05-23T06:37:29;17.60;99.90
4647;DHT22;2336;47.822;7.564;2023-05-23T06:39:55;17.70;99.90
4647;DHT22;2336;47.822;7.564;2023-05-23T06:42:22;17.70;99.90
4647;DHT22;2336;47.822;7.564;2023-05-23T06:44:49;17.80;99.90
4647;DHT22;2336;47.822;7.564;2023-05-23T06:47:15;17.80;99.90
4647;DHT22;2336;47.822;7.564;2023-05-23T06:49:42;17.90;99.90
4647;DHT22;2336;47.822;7.564;2023-05-23T06:52:10;17.90;99.90
4647;DHT22;2336;47.822;7.564;2023-05-23T06:54:38;17.90;99.90
4647;DHT22;2336;47.822;7.564;2023-05-23T06:57:05;18.00;99.90
4647;DHT22;2336;47.822;7.564;2023-05-23T06:59:31;18.10;99.90
4647;DHT22;2336;47.822;7.564;2023-05-23T07:01:58;18.20;99.90
4647;DHT22;2336;47.822;7.564;2023-05-23T07:04:25;18.20;99.90
4647;DHT22;2336;47.822;7.564;2023-05-23T07:06:52;18.40;99.90
4647;DHT22;2336;47.822;7.564;2023-05-23T07:09:19;18.40;99.90
4647;DHT22;2336;47.822;7.564;2023-05-23T07:11:47;18.50;99.90
4647;DHT22;2336;47.822;7.564;2023-05-23T07:14:14;18.50;99.90
4647;DHT22;2336;47.822;7.564;2023-05-23T07:16:41;18.50;99.90
4647;DHT22;2336;47.822;7.564;2023-05-23T07:19:07;18.50;99.90
4647;DHT22;2336;47.822;7.564;2023-05-23T07:21:34;18.50;99.90
4647;DHT22;2336;47.822;7.564;2023-05-23T07:24:01;18.60;99.90
4647;DHT22;2336;47.822;7.564;2023-05-23T07:26:28;18.60;99.90
4647;DHT22;2336;47.822;7.564;2023-05-23T07:28:56;18.60;99.90
4647;DHT22;2336;47.822;7.564;2023-05-23T07:31:23;18.60;99.90
4647;DHT22;2336;47.822;7.564;2023-05-23T07:33:50;18.60;99.90
4647;DHT22;2336;47.822;7.564;2023-05-23T07:36:17;18.70;99.90
4647;DHT22;2336;47.822;7.564;2023-05-23T07:38:43;18.70;99.90
4647;DHT22;2336;47.822;7.564;2023-05-23T07:41:10;18.60;99.90
4647;DHT22;2336;47.822;7.564;2023-05-23T07:43:37;18.70;99.90
4647;DHT22;2336;47.822;7.564;2023-05-23T07:46:05;18.70;99.90
4647;DHT22;2336;47.822;7.564;2023-05-23T07:48:32;18.70;99.90
4647;DHT22;2336;47.822;7.564;2023-05-23T07:50:58;18.90;99.90
4647;DHT22;2336;47.822;7.564;2023-05-23T07:53:25;19.10;99.90
4647;DHT22;2336;47.822;7.564;2023-05-23T07:55:52;19.20;99.90
4647;DHT22;2336;47.822;7.564;2023-05-23T07:58:19;19.40;99.90
4647;DHT22;2336;47.822;7.564;2023-05-23T08:00:45;19.50;99.90
4647;DHT22;2336;47.822;7.564;2023-05-23T08:03:14;19.60;99.90
4647;DHT22;2336;47.822;7.564;2023-05-23T08:05:43;19.40;99.90
4647;DHT22;2336;47.822;7.564;2023-05-23T08:08:10;19.40;99.90
4647;DHT22;2336;47.822;7.564;2023-05-23T08:10:36;19.40;99.90
4647;DHT22;2336;47.822;7.564;2023-05-23T08:13:04;19.50;99.90
4647;DHT22;2336;47.822;7.564;2023-05-23T08:15:31;19.60;99.90
4647;DHT22;2336;47.822;7.564;2023-05-23T08:17:58;19.80;99.90
4647;DHT22;2336;47.822;7.564;2023-05-23T08:20:27;19.60;99.90
4647;DHT22;2336;47.822;7.564;2023-05-23T08:22:57;19.50;99.90
4647;DHT22;2336;47.822;7.564;2023-05-23T08:25:24;19.60;99.90
4647;DHT22;2336;47.822;7.564;2023-05-23T08:27:54;19.80;99.90
4647;DHT22;2336;47.822;7.564;2023-05-23T08:30:21;20.00;99.90
4647;DHT22;2336;47.822;7.564;2023-05-23T08:32:50;20.20;99.90
4647;DHT22;2336;47.822;7.564;2023-05-23T08:35:16;20.30;99.90
4647;DHT22;2336;47.822;7.564;2023-05-23T08:37:44;20.30;99.90
4647;DHT22;2336;47.822;7.564;2023-05-23T08:40:13;20.10;99.90
4647;DHT22;2336;47.822;7.564;2023-05-23T08:42:43;20.20;99.90
4647;DHT22;2336;47.822;7.564;2023-05-23T08:45:10;20.20;99.90
4647;DHT22;2336;47.822;7.564;2023-05-23T08:47:38;20.30;99.90
4647;DHT22;2336;47.822;7.564;2023-05-23T08:50:10;20.40;99.90
4647;DHT22;2336;47.822;7.564;2023-05-23T08:52:42;20.60;99.90
4647;DHT22;2336;47.822;7.564;2023-05-23T08:55:10;20.70;99.90
4647;DHT22;2336;47.822;7.564;2023-05-23T08:57:38;20.90;99.90
4647;DHT22;2336;47.822;7.564;2023-05-23T09:00:09;21.00;99.90
4647;DHT22;2336;47.822;7.564;2023-05-23T09:02:39;20.80;99.90
4647;DHT22;2336;47.822;7.564;2023-05-23T09:05:06;20.70;99.90
4647;DHT22;2336;47.822;7.564;2023-05-23T09:07:34;20.40;99.90
4647;DHT22;2336;47.822;7.564;2023-05-23T09:10:01;20.10;99.90
4647;DHT22;2336;47.822;7.564;2023-05-23T09:12:29;20.10;99.90
4647;DHT22;2336;47.822;7.564;2023-05-23T09:14:57;20.00;99.90
4647;DHT22;2336;47.822;7.564;2023-05-23T09:17:24;19.90;99.90
4647;DHT22;2336;47.822;7.564;2023-05-23T09:19:51;19.80;99.90
4647;DHT22;2336;47.822;7.564;2023-05-23T09:22:23;20.00;99.90
4647;DHT22;2336;47.822;7.564;2023-05-23T09:24:50;20.30;99.90
4647;DHT22;2336;47.822;7.564;2023-05-23T09:27:17;20.50;99.90
4647;DHT22;2336;47.822;7.564;2023-05-23T09:29:45;20.60;99.90
4647;DHT22;2336;47.822;7.564;2023-05-23T09:32:14;20.60;99.90
4647;DHT22;2336;47.822;7.564;2023-05-23T09:34:41;20.80;99.90
4647;DHT22;2336;47.822;7.564;2023-05-23T09:37:10;20.90;99.90
4647;DHT22;2336;47.822;7.564;2023-05-23T09:39:37;21.00;99.90
4647;DHT22;2336;47.822;7.564;2023-05-23T09:42:05;20.60;99.90
4647;DHT22;2336;47.822;7.564;2023-05-23T09:44:31;20.60;99.90
4647;DHT22;2336;47.822;7.564;2023-05-23T09:47:07;20.70;99.90
4647;DHT22;2336;47.822;7.564;2023-05-23T09:49:34;21.00;99.90
4647;DHT22;2336;47.822;7.564;2023-05-23T09:52:01;21.20;99.90
4647;DHT22;2336;47.822;7.564;2023-05-23T09:54:27;21.40;99.90
4647;DHT22;2336;47.822;7.564;2023-05-23T09:56:55;21.40;99.90
4647;DHT22;2336;47.822;7.564;2023-05-23T09:59:26;21.50;99.90
4647;DHT22;2336;47.822;7.564;2023-05-23T10:01:56;21.40;99.90
4647;DHT22;2336;47.822;7.564;2023-05-23T10:04:24;21.50;99.90
4647;DHT22;2336;47.822;7.564;2023-05-23T10:06:55;21.30;99.90
4647;DHT22;2336;47.822;7.564;2023-05-23T10:09:25;21.30;99.90
4647;DHT22;2336;47.822;7.564;2023-05-23T10:12:20;21.40;99.90
4647;DHT22;2336;47.822;7.564;2023-05-23T10:15:02;21.30;99.90
4647;DHT22;2336;47.822;7.564;2023-05-23T10:17:34;21.10;99.90
4647;DHT22;2336;47.822;7.564;2023-05-23T10:20:09;20.90;99.90
4647;DHT22;2336;47.822;7.564;2023-05-23T10:22:37;20.80;99.90
4647;DHT22;2336;47.822;7.564;2023-05-23T10:25:05;21.00;99.90
4647;DHT22;2336;47.822;7.564;2023-05-23T10:27:32;21.10;99.90
4647;DHT22;2336;47.822;7.564;2023-05-23T10:29:59;21.10;99.90
4647;DHT22;2336;47.822;7.564;2023-05-23T10:32:26;21.30;99.90
4647;DHT22;2336;47.822;7.564;2023-05-23T10:34:58;21.40;99.90
4647;DHT22;2336;47.822;7.564;2023-05-23T10:37:32;21.60;99.90
4647;DHT22;2336;47.822;7.564;2023-05-23T10:40:04;21.80;99.90
4647;DHT22;2336;47.822;7.564;2023-05-23T10:42:41;22.00;99.90
4647;DHT22;2336;47.822;7.564;2023-05-23T10:45:19;22.10;99.90
4647;DHT22;2336;47.822;7.564;2023-05-23T10:47:47;22.10;99.90
4647;DHT22;2336;47.822;7.564;2023-05-23T10:50:15;22.00;99.90
4647;DHT22;2336;47.822;7.564;2023-05-23T10:52:43;21.90;99.90
4647;DHT22;2336;47.822;7.564;2023-05-23T10:55:14;22.10;99.90
4647;DHT22;2336;47.822;7.564;2023-05-23T10:57:42;22.20;99.90
4647;DHT22;2336;47.822;7.564;2023-05-23T11:00:15;21.90;99.90
4647;DHT22;2336;47.822;7.564;2023-05-23T11:02:53;21.70;99.90
4647;DHT22;2336;47.822;7.564;2023-05-23T11:05:21;21.60;99.90
4647;DHT22;2336;47.822;7.564;2023-05-23T11:08:09;21.60;99.90
4647;DHT22;2336;47.822;7.564;2023-05-23T11:10:51;22.00;99.90
4647;DHT22;2336;47.822;7.564;2023-05-23T11:13:19;22.30;99.90
4647;DHT22;2336;47.822;7.564;2023-05-23T11:15:46;22.60;99.90
4647;DHT22;2336;47.822;7.564;2023-05-23T11:18:19;22.40;99.90
4647;DHT22;2336;47.822;7.564;2023-05-23T11:20:46;21.90;99.90
4647;DHT22;2336;47.822;7.564;2023-05-23T11:23:16;21.80;99.90
4647;DHT22;2336;47.822;7.564;2023-05-23T11:25:44;21.90;99.90
4647;DHT22;2336;47.822;7.564;2023-05-23T11:28:12;21.90;99.90
4647;DHT22;2336;47.822;7.564;2023-05-23T11:30:39;22.00;99.90
4647;DHT22;2336;47.822;7.564;2023-05-23T11:33:07;21.90;99.90
4647;DHT22;2336;47.822;7.564;2023-05-23T11:35:35;21.90;99.90
4647;DHT22;2336;47.822;7.564;2023-05-23T11:38:03;21.40;99.90
4647;DHT22;2336;47.822;7.564;2023-05-23T11:40:33;21.50;99.90
4647;DHT22;2336;47.822;7.564;2023-05-23T11:43:02;21.60;99.90
4647;DHT22;2336;47.822;7.564;2023-05-23T11:45:30;21.70;99.90
4647;DHT22;2336;47.822;7.564;2023-05-23T11:47:57;21.40;99.90
4647;DHT22;2336;47.822;7.564;2023-05-23T11:50:24;21.40;99.90
4647;DHT22;2336;47.822;7.564;2023-05-23T11:52:53;21.30;99.90
4647;DHT22;2336;47.822;7.564;2023-05-23T11:55:20;21.30;99.90
4647;DHT22;2336;47.822;7.564;2023-05-23T11:57:49;21.30;99.90
4647;DHT22;2336;47.822;7.564;2023-05-23T12:00:17;21.70;99.90
4647;DHT22;2336;47.822;7.564;2023-05-23T12:02:44;21.50;99.90
4647;DHT22;2336;47.822;7.564;2023-05-23T12:05:13;21.60;99.90
4647;DHT22;2336;47.822;7.564;2023-05-23T12:07:40;21.80;99.90
4647;DHT22;2336;47.822;7.564;2023-05-23T12:10:08;22.10;99.90
4647;DHT22;2336;47.822;7.564;2023-05-23T12:12:35;22.10;99.90
4647;DHT22;2336;47.822;7.564;2023-05-23T12:15:04;22.20;99.90
4647;DHT22;2336;47.822;7.564;2023-05-23T12:17:31;22.10;99.90
4647;DHT22;2336;47.822;7.564;2023-05-23T12:19:58;21.70;99.90
4647;DHT22;2336;47.822;7.564;2023-05-23T12:22:27;22.10;99.90
4647;DHT22;2336;47.822;7.564;2023-05-23T12:24:54;22.10;99.90
4647;DHT22;2336;47.822;7.564;2023-05-23T12:27:26;21.90;99.90
4647;DHT22;2336;47.822;7.564;2023-05-23T12:30:05;22.00;99.90
4647;DHT22;2336;47.822;7.564;2023-05-23T12:32:33;22.40;99.90
4647;DHT22;2336;47.822;7.564;2023-05-23T12:35:00;22.90;99.90
4647;DHT22;2336;47.822;7.564;2023-05-23T12:37:27;22.80;99.90
4647;DHT22;2336;47.822;7.564;2023-05-23T12:39:55;22.60;99.90
4647;DHT22;2336;47.822;7.564;2023-05-23T12:42:22;22.30;99.90
4647;DHT22;2336;47.822;7.564;2023-05-23T12:44:50;22.40;99.90
4647;DHT22;2336;47.822;7.564;2023-05-23T12:47:18;22.20;99.90
4647;DHT22;2336;47.822;7.564;2023-05-23T12:49:45;22.40;99.90
4647;DHT22;2336;47.822;7.564;2023-05-23T12:52:12;22.40;99.90
4647;DHT22;2336;47.822;7.564;2023-05-23T12:54:39;22.30;99.90
4647;DHT22;2336;47.822;7.564;2023-05-23T12:57:05;22.20;99.90
4647;DHT22;2336;47.822;7.564;2023-05-23T12:59:32;21.80;99.90
4647;DHT22;2336;47.822;7.564;2023-05-23T13:01:59;21.90;99.90
4647;DHT22;2336;47.822;7.564;2023-05-23T13:04:28;22.30;99.90
4647;DHT22;2336;47.822;7.564;2023-05-23T13:06:55;22.20;99.90
4647;DHT22;2336;47.822;7.564;2023-05-23T13:09:21;22.10;99.90
4647;DHT22;2336;47.822;7.564;2023-05-23T13:11:48;22.30;99.90
4647;DHT22;2336;47.822;7.564;2023-05-23T13:14:15;22.50;99.90
4647;DHT22;2336;47.822;7.564;2023-05-23T13:16:41;22.50;99.90
4647;DHT22;2336;47.822;7.564;2023-05-23T13:19:09;22.30;99.90
4647;DHT22;2336;47.822;7.564;2023-05-23T13:21:38;22.50;99.90
4647;DHT22;2336;47.822;7.564;2023-05-23T13:24:05;22.40;99.90
4647;DHT22;2336;47.822;7.564;2023-05-23T13:26:33;22.60;99.90
4647;DHT22;2336;47.822;7.564;2023-05-23T13:29:00;22.70;99.90
4647;DHT22;2336;47.822;7.564;2023-05-23T13:31:27;22.70;99.90
4647;DHT22;2336;47.822;7.564;2023-05-23T13:33:53;22.60;99.90
4647;DHT22;2336;47.822;7.564;2023-05-23T13:36:20;22.90;99.90
4647;DHT22;2336;47.822;7.564;2023-05-23T13:38:48;22.90;99.90
4647;DHT22;2336;47.822;7.564;2023-05-23T13:41:15;23.00;99.90
4647;DHT22;2336;47.822;7.564;2023-05-23T13:43:42;22.90;99.90
4647;DHT22;2336;47.822;7.564;2023-05-23T13:46:09;22.80;99.90
4647;DHT22;2336;47.822;7.564;2023-05-23T13:48:36;22.80;99.90
4647;DHT22;2336;47.822;7.564;2023-05-23T13:51:03;22.90;99.90
4647;DHT22;2336;47.822;7.564;2023-05-23T13:53:30;22.90;99.90
4647;DHT22;2336;47.822;7.564;2023-05-23T13:55:58;23.00;99.90
4647;DHT22;2336;47.822;7.564;2023-05-23T13:58:25;22.70;99.90
4647;DHT22;2336;47.822;7.564;2023-05-23T14:00:52;22.50;99.90
4647;DHT22;2336;47.822;7.564;2023-05-23T14:03:19;22.50;99.90
4647;DHT22;2336;47.822;7.564;2023-05-23T14:05:46;22.20;99.90
4647;DHT22;2336;47.822;7.564;2023-05-23T14:08:13;22.30;99.90
4647;DHT22;2336;47.822;7.564;2023-05-23T14:10:40;22.30;99.90
4647;DHT22;2336;47.822;7.564;2023-05-23T14:13:08;22.40;99.90
4647;DHT22;2336;47.822;7.564;2023-05-23T14:15:35;22.50;99.90
4647;DHT22;2336;47.822;7.564;2023-05-23T14:18:03;22.50;99.90
4647;DHT22;2336;47.822;7.564;2023-05-23T14:20:29;22.50;99.90
4647;DHT22;2336;47.822;7.564;2023-05-23T14:22:57;22.40;99.90
4647;DHT22;2336;47.822;7.564;2023-05-23T14:25:24;22.50;99.90
4647;DHT22;2336;47.822;7.564;2023-05-23T14:27:50;22.60;99.90
4647;DHT22;2336;47.822;7.564;2023-05-23T14:30:18;22.40;99.90
4647;DHT22;2336;47.822;7.564;2023-05-23T14:32:45;22.60;99.90
4647;DHT22;2336;47.822;7.564;2023-05-23T14:35:12;22.70;99.90
4647;DHT22;2336;47.822;7.564;2023-05-23T14:37:39;22.50;99.90
4647;DHT22;2336;47.822;7.564;2023-05-23T14:40:08;22.60;99.90
4647;DHT22;2336;47.822;7.564;2023-05-23T14:42:37;22.40;99.90
4647;DHT22;2336;47.822;7.564;2023-05-23T14:45:04;22.10;99.90
4647;DHT22;2336;47.822;7.564;2023-05-23T14:47:33;22.30;99.90
4647;DHT22;2336;47.822;7.564;2023-05-23T14:50:01;22.20;99.90
4647;DHT22;2336;47.822;7.564;2023-05-23T14:52:28;22.00;99.90
4647;DHT22;2336;47.822;7.564;2023-05-23T14:54:55;22.10;99.90
4647;DHT22;2336;47.822;7.564;2023-05-23T14:57:22;22.00;99.90
4647;DHT22;2336;47.822;7.564;2023-05-23T14:59:48;22.10;99.90
4647;DHT22;2336;47.822;7.564;2023-05-23T15:02:15;22.20;99.90
4647;DHT22;2336;47.822;7.564;2023-05-23T15:04:43;22.00;99.90
4647;DHT22;2336;47.822;7.564;2023-05-23T15:07:10;22.00;99.90
4647;DHT22;2336;47.822;7.564;2023-05-23T15:09:38;22.00;99.90
4647;DHT22;2336;47.822;7.564;2023-05-23T15:12:05;22.00;99.90
4647;DHT22;2336;47.822;7.564;2023-05-23T15:14:34;21.90;99.90
4647;DHT22;2336;47.822;7.564;2023-05-23T15:17:00;22.10;99.90
4647;DHT22;2336;47.822;7.564;2023-05-23T15:19:33;21.90;99.90
4647;DHT22;2336;47.822;7.564;2023-05-23T15:22:03;21.90;99.90
4647;DHT22;2336;47.822;7.564;2023-05-23T15:24:30;21.90;99.90
4647;DHT22;2336;47.822;7.564;2023-05-23T15:26:57;21.80;99.90
4647;DHT22;2336;47.822;7.564;2023-05-23T15:29:24;21.80;99.90
4647;DHT22;2336;47.822;7.564;2023-05-23T15:31:51;21.80;99.90
4647;DHT22;2336;47.822;7.564;2023-05-23T15:34:18;21.80;99.90
4647;DHT22;2336;47.822;7.564;2023-05-23T15:36:46;21.80;99.90
4647;DHT22;2336;47.822;7.564;2023-05-23T15:39:14;21.80;99.90
4647;DHT22;2336;47.822;7.564;2023-05-23T15:41:41;21.90;99.90
4647;DHT22;2336;47.822;7.564;2023-05-23T15:44:08;21.70;99.90
4647;DHT22;2336;47.822;7.564;2023-05-23T15:46:34;21.50;99.90
4647;DHT22;2336;47.822;7.564;2023-05-23T15:49:01;21.60;99.90
4647;DHT22;2336;47.822;7.564;2023-05-23T15:51:28;21.60;99.90
4647;DHT22;2336;47.822;7.564;2023-05-23T15:53:57;21.70;99.90
4647;DHT22;2336;47.822;7.564;2023-05-23T15:56:25;21.60;99.90
4647;DHT22;2336;47.822;7.564;2023-05-23T15:58:52;21.60;99.90
4647;DHT22;2336;47.822;7.564;2023-05-23T16:01:18;21.60;99.90
4647;DHT22;2336;47.822;7.564;2023-05-23T16:03:46;21.60;99.90
4647;DHT22;2336;47.822;7.564;2023-05-23T16:06:13;21.60;99.90